LNR023 LFBD-LESO
Flight info
| Callsign | LNR023 |
|---|---|
| Flight time | 0h 32m |
| Altitude | 13000 |
| Route | VAVIX B19 ENSAC R10 URUNA P181 SSN |
| Aircraft | A320/M-SDE3FGHIRWY/LB1 |
Departure
| Time | 2026-04-29 16:21 |
|---|---|
| Airport | Bordeaux–Mérignac Airport (LFBD) |
Arrival
| Time | 2026-04-29 16:53 |
|---|---|
| Airport | San Sebastián Airport (LESO) |
| Time | Latitude | Longitude | Altitude | Speed | Heading |
|---|---|---|---|---|---|
| 2026-04-29 16:03 | 44.82979 | -0.70292 | 166 ft | 0 kts | 76° |
| 2026-04-29 16:13 | 44.82975 | -0.70318 | 165 ft | 2 kts | 65° |
| 2026-04-29 16:13 | 44.82964 | -0.70346 | 165 ft | 4 kts | 48° |
| 2026-04-29 16:14 | 44.82950 | -0.70366 | 165 ft | 1 kts | 43° |
| 2026-04-29 16:14 | 44.82947 | -0.70370 | 165 ft | 0 kts | 43° |
| 2026-04-29 16:15 | 44.82948 | -0.70369 | 165 ft | 1 kts | 43° |
| 2026-04-29 16:16 | 44.82963 | -0.70382 | 165 ft | 8 kts | 309° |
| 2026-04-29 16:16 | 44.82926 | -0.70473 | 165 ft | 12 kts | 208° |
| 2026-04-29 16:16 | 44.82871 | -0.70553 | 165 ft | 15 kts | 257° |
| 2026-04-29 16:16 | 44.82899 | -0.70740 | 165 ft | 20 kts | 287° |
| 2026-04-29 16:17 | 44.82938 | -0.70924 | 165 ft | 19 kts | 285° |
| 2026-04-29 16:17 | 44.82976 | -0.71104 | 162 ft | 19 kts | 288° |
| 2026-04-29 16:17 | 44.83014 | -0.71276 | 163 ft | 17 kts | 285° |
| 2026-04-29 16:17 | 44.83045 | -0.71427 | 165 ft | 19 kts | 288° |
| 2026-04-29 16:18 | 44.83085 | -0.71610 | 166 ft | 19 kts | 287° |
| 2026-04-29 16:18 | 44.83120 | -0.71774 | 167 ft | 16 kts | 287° |
| 2026-04-29 16:18 | 44.83153 | -0.71926 | 165 ft | 16 kts | 287° |
| 2026-04-29 16:18 | 44.83157 | -0.72069 | 166 ft | 14 kts | 233° |
| 2026-04-29 16:19 | 44.83043 | -0.72135 | 165 ft | 17 kts | 197° |
| 2026-04-29 16:19 | 44.83020 | -0.72280 | 167 ft | 23 kts | 285° |
| 2026-04-29 16:19 | 44.83075 | -0.72537 | 163 ft | 30 kts | 286° |
| 2026-04-29 16:19 | 44.83123 | -0.72786 | 164 ft | 20 kts | 279° |
| 2026-04-29 16:20 | 44.83135 | -0.72910 | 164 ft | 4 kts | 340° |
| 2026-04-29 16:20 | 44.83143 | -0.72872 | 165 ft | 11 kts | 86° |
| 2026-04-29 16:20 | 44.83087 | -0.72587 | 163 ft | 63 kts | 107° |
| 2026-04-29 16:20 | 44.82897 | -0.71688 | 169 ft | 126 kts | 107° |
| 2026-04-29 16:21 | 44.82618 | -0.70369 | 601 ft | 140 kts | 109° |
| 2026-04-29 16:21 | 44.82150 | -0.69170 | 1242 ft | 145 kts | 136° |
| 2026-04-29 16:21 | 44.81246 | -0.68536 | 1920 ft | 151 kts | 167° |
| 2026-04-29 16:21 | 44.80131 | -0.68740 | 2241 ft | 179 kts | 206° |
| 2026-04-29 16:22 | 44.79122 | -0.69969 | 2574 ft | 203 kts | 219° |
| 2026-04-29 16:22 | 44.77833 | -0.70827 | 2920 ft | 215 kts | 185° |
| 2026-04-29 16:22 | 44.76281 | -0.70851 | 3321 ft | 238 kts | 174° |
| 2026-04-29 16:22 | 44.74567 | -0.70633 | 3988 ft | 252 kts | 173° |
| 2026-04-29 16:23 | 44.72807 | -0.70396 | 4973 ft | 256 kts | 175° |
| 2026-04-29 16:23 | 44.71015 | -0.70207 | 5948 ft | 259 kts | 176° |
| 2026-04-29 16:23 | 44.69226 | -0.70080 | 6846 ft | 263 kts | 178° |
| 2026-04-29 16:23 | 44.67383 | -0.69998 | 7750 ft | 266 kts | 178° |
| 2026-04-29 16:24 | 44.65517 | -0.69939 | 8687 ft | 269 kts | 178° |
| 2026-04-29 16:24 | 44.63631 | -0.69897 | 9613 ft | 272 kts | 179° |
| 2026-04-29 16:24 | 44.61711 | -0.69866 | 10290 ft | 284 kts | 179° |
| 2026-04-29 16:24 | 44.59651 | -0.69835 | 10618 ft | 307 kts | 179° |
| 2026-04-29 16:25 | 44.57478 | -0.69806 | 11247 ft | 316 kts | 179° |
| 2026-04-29 16:25 | 44.55261 | -0.69777 | 12032 ft | 321 kts | 179° |
| 2026-04-29 16:25 | 44.53036 | -0.69750 | 12661 ft | 326 kts | 179° |
| 2026-04-29 16:25 | 44.50761 | -0.69723 | 12856 ft | 326 kts | 179° |
| 2026-04-29 16:26 | 44.48524 | -0.69696 | 12895 ft | 316 kts | 179° |
| 2026-04-29 16:26 | 44.46332 | -0.69664 | 12902 ft | 313 kts | 179° |
| 2026-04-29 16:26 | 44.44154 | -0.69633 | 12901 ft | 312 kts | 179° |
| 2026-04-29 16:26 | 44.41979 | -0.69603 | 12903 ft | 312 kts | 179° |
| 2026-04-29 16:27 | 44.39818 | -0.69575 | 12902 ft | 311 kts | 180° |
| 2026-04-29 16:27 | 44.37674 | -0.69546 | 12901 ft | 311 kts | 180° |
| 2026-04-29 16:27 | 44.35512 | -0.69514 | 12897 ft | 311 kts | 180° |
| 2026-04-29 16:27 | 44.33351 | -0.69482 | 12900 ft | 311 kts | 180° |
| 2026-04-29 16:28 | 44.31184 | -0.69452 | 12898 ft | 311 kts | 180° |
| 2026-04-29 16:28 | 44.29017 | -0.69424 | 12897 ft | 311 kts | 180° |
| 2026-04-29 16:28 | 44.26879 | -0.69388 | 12898 ft | 311 kts | 179° |
| 2026-04-29 16:28 | 44.24717 | -0.69304 | 12897 ft | 311 kts | 178° |
| 2026-04-29 16:29 | 44.22552 | -0.69230 | 12897 ft | 310 kts | 182° |
| 2026-04-29 16:29 | 44.20425 | -0.69726 | 12892 ft | 310 kts | 197° |
| 2026-04-29 16:29 | 44.18462 | -0.70965 | 12890 ft | 311 kts | 211° |
| 2026-04-29 16:29 | 44.16769 | -0.72792 | 12894 ft | 312 kts | 218° |
| 2026-04-29 16:30 | 44.15108 | -0.74747 | 12898 ft | 312 kts | 218° |
| 2026-04-29 16:30 | 44.13443 | -0.76697 | 12901 ft | 312 kts | 218° |
| 2026-04-29 16:30 | 44.11772 | -0.78639 | 12902 ft | 312 kts | 218° |
| 2026-04-29 16:30 | 44.10106 | -0.80570 | 12900 ft | 312 kts | 218° |
| 2026-04-29 16:31 | 44.08439 | -0.82510 | 12901 ft | 313 kts | 218° |
| 2026-04-29 16:31 | 44.06772 | -0.84453 | 12897 ft | 313 kts | 218° |
| 2026-04-29 16:31 | 44.05122 | -0.86371 | 12900 ft | 313 kts | 218° |
| 2026-04-29 16:31 | 44.03453 | -0.88307 | 12892 ft | 313 kts | 218° |
| 2026-04-29 16:32 | 44.01783 | -0.90244 | 12886 ft | 312 kts | 218° |
| 2026-04-29 16:32 | 44.00116 | -0.92177 | 12901 ft | 312 kts | 218° |
| 2026-04-29 16:32 | 43.98446 | -0.94114 | 12895 ft | 312 kts | 218° |
| 2026-04-29 16:32 | 43.96782 | -0.96045 | 12897 ft | 312 kts | 218° |
| 2026-04-29 16:33 | 43.93449 | -0.99898 | 12904 ft | 311 kts | 218° |
| 2026-04-29 16:33 | 43.91797 | -1.01787 | 12906 ft | 311 kts | 217° |
| 2026-04-29 16:33 | 43.90089 | -1.03639 | 12899 ft | 311 kts | 216° |
| 2026-04-29 16:34 | 43.88361 | -1.05452 | 12903 ft | 311 kts | 216° |
| 2026-04-29 16:34 | 43.86634 | -1.07243 | 12893 ft | 311 kts | 216° |
| 2026-04-29 16:34 | 43.84899 | -1.09040 | 12898 ft | 311 kts | 216° |
| 2026-04-29 16:34 | 43.83171 | -1.10838 | 12898 ft | 311 kts | 216° |
| 2026-04-29 16:35 | 43.81445 | -1.12641 | 12895 ft | 311 kts | 216° |
| 2026-04-29 16:35 | 43.79744 | -1.14421 | 12897 ft | 311 kts | 216° |
| 2026-04-29 16:35 | 43.78013 | -1.16231 | 12901 ft | 311 kts | 216° |
| 2026-04-29 16:35 | 43.76287 | -1.18039 | 12888 ft | 311 kts | 216° |
| 2026-04-29 16:36 | 43.74562 | -1.19849 | 12888 ft | 311 kts | 216° |
| 2026-04-29 16:36 | 43.72857 | -1.21701 | 12890 ft | 312 kts | 217° |
| 2026-04-29 16:36 | 43.71171 | -1.23599 | 12890 ft | 312 kts | 218° |
| 2026-04-29 16:36 | 43.69491 | -1.25511 | 12893 ft | 312 kts | 218° |
| 2026-04-29 16:37 | 43.67816 | -1.27418 | 12886 ft | 312 kts | 218° |
| 2026-04-29 16:37 | 43.66156 | -1.29297 | 12894 ft | 312 kts | 218° |
| 2026-04-29 16:37 | 43.64466 | -1.31200 | 12900 ft | 312 kts | 218° |
| 2026-04-29 16:37 | 43.63348 | -1.32453 | 12895 ft | 312 kts | 218° |
| 2026-04-29 16:38 | 43.61094 | -1.34970 | 12904 ft | 311 kts | 218° |
| 2026-04-29 16:38 | 43.59404 | -1.36851 | 12905 ft | 311 kts | 218° |
| 2026-04-29 16:38 | 43.57740 | -1.38699 | 12887 ft | 310 kts | 218° |
| 2026-04-29 16:38 | 43.56055 | -1.40572 | 12886 ft | 310 kts | 218° |
| 2026-04-29 16:39 | 43.54378 | -1.42442 | 12880 ft | 310 kts | 218° |
| 2026-04-29 16:39 | 43.52701 | -1.44311 | 12879 ft | 310 kts | 218° |
| 2026-04-29 16:39 | 43.51024 | -1.46179 | 12881 ft | 310 kts | 218° |
| 2026-04-29 16:39 | 43.49342 | -1.48048 | 12876 ft | 310 kts | 218° |
| 2026-04-29 16:40 | 43.47665 | -1.49918 | 12877 ft | 310 kts | 219° |
| 2026-04-29 16:40 | 43.46191 | -1.52034 | 12887 ft | 312 kts | 231° |
| 2026-04-29 16:40 | 43.44977 | -1.54516 | 12892 ft | 312 kts | 234° |
| 2026-04-29 16:40 | 43.43782 | -1.56995 | 12864 ft | 311 kts | 233° |
| 2026-04-29 16:41 | 43.42579 | -1.59470 | 12861 ft | 310 kts | 233° |
| 2026-04-29 16:41 | 43.41383 | -1.61934 | 12854 ft | 307 kts | 233° |
| 2026-04-29 16:41 | 43.40203 | -1.64362 | 12865 ft | 307 kts | 233° |
| 2026-04-29 16:41 | 43.39015 | -1.66804 | 12834 ft | 307 kts | 234° |
| 2026-04-29 16:42 | 43.37837 | -1.69222 | 12846 ft | 308 kts | 233° |
| 2026-04-29 16:42 | 43.36650 | -1.71664 | 12851 ft | 307 kts | 233° |
| 2026-04-29 16:42 | 43.35469 | -1.74094 | 12844 ft | 305 kts | 233° |
| 2026-04-29 16:42 | 43.34288 | -1.76524 | 12515 ft | 306 kts | 234° |
| 2026-04-29 16:43 | 43.33168 | -1.79009 | 12040 ft | 307 kts | 244° |
| 2026-04-29 16:43 | 43.32731 | -1.81877 | 11734 ft | 309 kts | 268° |
| 2026-04-29 16:43 | 43.33203 | -1.84690 | 11397 ft | 302 kts | 292° |
| 2026-04-29 16:43 | 43.34539 | -1.86921 | 10916 ft | 312 kts | 315° |
| 2026-04-29 16:44 | 43.36272 | -1.88868 | 10167 ft | 323 kts | 315° |
| 2026-04-29 16:44 | 43.37933 | -1.90791 | 9826 ft | 307 kts | 316° |
| 2026-04-29 16:44 | 43.39543 | -1.92667 | 9230 ft | 302 kts | 316° |
| 2026-04-29 16:44 | 43.41197 | -1.94443 | 8651 ft | 303 kts | 327° |
| 2026-04-29 16:45 | 43.43213 | -1.95357 | 8141 ft | 310 kts | 355° |
| 2026-04-29 16:45 | 43.45323 | -1.95014 | 7942 ft | 305 kts | 20° |
| 2026-04-29 16:45 | 43.47136 | -1.93560 | 7648 ft | 299 kts | 45° |
| 2026-04-29 16:45 | 43.48362 | -1.91322 | 7151 ft | 291 kts | 65° |
| 2026-04-29 16:46 | 43.49337 | -1.88886 | 6479 ft | 290 kts | 65° |
| 2026-04-29 16:46 | 43.50300 | -1.86459 | 5831 ft | 286 kts | 66° |
| 2026-04-29 16:46 | 43.51218 | -1.84150 | 5732 ft | 262 kts | 66° |
| 2026-04-29 16:46 | 43.52050 | -1.82068 | 5673 ft | 242 kts | 66° |
| 2026-04-29 16:47 | 43.52848 | -1.80060 | 5611 ft | 237 kts | 67° |
| 2026-04-29 16:47 | 43.53640 | -1.78056 | 5513 ft | 238 kts | 67° |
| 2026-04-29 16:47 | 43.54370 | -1.76027 | 5397 ft | 230 kts | 79° |
| 2026-04-29 16:47 | 43.54452 | -1.73940 | 5307 ft | 212 kts | 108° |
| 2026-04-29 16:48 | 43.53855 | -1.72149 | 4964 ft | 202 kts | 133° |
| 2026-04-29 16:48 | 43.52983 | -1.70688 | 4659 ft | 193 kts | 133° |
| 2026-04-29 16:48 | 43.52143 | -1.69268 | 4377 ft | 189 kts | 133° |
| 2026-04-29 16:48 | 43.51325 | -1.67883 | 4093 ft | 189 kts | 133° |
| 2026-04-29 16:49 | 43.50496 | -1.66480 | 3808 ft | 189 kts | 133° |
| 2026-04-29 16:49 | 43.49527 | -1.65324 | 3524 ft | 184 kts | 161° |
| 2026-04-29 16:49 | 43.48282 | -1.65278 | 3261 ft | 184 kts | 198° |
| 2026-04-29 16:49 | 43.47212 | -1.66284 | 3007 ft | 190 kts | 214° |
| 2026-04-29 16:50 | 43.46167 | -1.67454 | 2716 ft | 195 kts | 214° |
| 2026-04-29 16:50 | 43.45115 | -1.68617 | 2400 ft | 198 kts | 214° |
| 2026-04-29 16:50 | 43.44070 | -1.69774 | 2105 ft | 186 kts | 214° |
| 2026-04-29 16:50 | 43.43098 | -1.70856 | 1853 ft | 173 kts | 214° |
| 2026-04-29 16:51 | 43.42193 | -1.71859 | 1653 ft | 157 kts | 214° |
| 2026-04-29 16:51 | 43.41383 | -1.72758 | 1373 ft | 147 kts | 214° |
| 2026-04-29 16:51 | 43.40592 | -1.73626 | 1234 ft | 143 kts | 215° |
| 2026-04-29 16:51 | 43.39820 | -1.74472 | 967 ft | 144 kts | 213° |
| 2026-04-29 16:52 | 43.39054 | -1.75320 | 766 ft | 140 kts | 213° |
| 2026-04-29 16:52 | 43.38297 | -1.76151 | 618 ft | 139 kts | 215° |
| 2026-04-29 16:52 | 43.37538 | -1.76980 | 407 ft | 140 kts | 217° |
| 2026-04-29 16:52 | 43.36768 | -1.77816 | 202 ft | 142 kts | 218° |
| 2026-04-29 16:53 | 43.35990 | -1.78682 | 33 ft | 143 kts | 218° |
| 2026-04-29 16:53 | 43.35339 | -1.79394 | 20 ft | 82 kts | 219° |
| 2026-04-29 16:53 | 43.35121 | -1.79646 | 19 ft | 21 kts | 224° |
| 2026-04-29 16:53 | 43.35067 | -1.79724 | 20 ft | 4 kts | 138° |
| 2026-04-29 16:54 | 43.35099 | -1.79666 | 19 ft | 16 kts | 39° |
| 2026-04-29 16:54 | 43.35193 | -1.79563 | 21 ft | 18 kts | 39° |
| 2026-04-29 16:54 | 43.35298 | -1.79447 | 20 ft | 22 kts | 39° |
| 2026-04-29 16:54 | 43.35425 | -1.79309 | 20 ft | 24 kts | 38° |
| 2026-04-29 16:55 | 43.35522 | -1.79258 | 18 ft | 13 kts | 329° |
| 2026-04-29 16:55 | 43.35565 | -1.79322 | 17 ft | 0 kts | 306° |
| 2026-04-29 16:55 | 43.35564 | -1.79322 | 17 ft | 0 kts | 306° |